Orbital elements of COSMOS 2251 DEB
| Launched | 15 June 1993 |
| Flight ended | – |
| Launch site | Plesetsk Missile and Space Complex, Russia |
| Owner | Commonwealth of Independent States (former USSR) |
| NORAD ID | 34122 |
| Date fetched |
Epoch osculation |
Inc. [°] |
Ecc. | RA asc node [hr] |
Arg Peri. [°] |
Mean anom [°] |
Mean motion [rev/day] |
Abs. mag |
| Date fetched |
Epoch osculation |
Inc. [°] |
Ecc. | RA asc node [hr] |
Arg Peri. [°] |
Mean anom [°] |
Mean motion [rev/day] |
Abs. mag |
| 2026 May 08 17:57 | 2026 May 05 11:07:57 | 74.0354 | 0.00802 | 13.4433 | 61.1275 | 314.2913 | 14.67065 | – |
| 2026 May 07 17:58 | 2026 May 05 11:07:57 | 74.0354 | 0.00802 | 13.4433 | 61.1275 | 314.2913 | 14.67065 | – |
| 2026 May 06 17:57 | 2026 May 05 11:07:57 | 74.0354 | 0.00802 | 13.4433 | 61.1275 | 314.2913 | 14.67065 | – |
| 2026 May 05 17:57 | 2026 May 05 11:07:57 | 74.0354 | 0.00802 | 13.4433 | 61.1275 | 314.2913 | 14.67065 | – |
| 2026 May 04 17:57 | 2026 Apr 30 08:38:49 | 74.0366 | 0.00803 | 14.0998 | 72.5261 | 314.2913 | 14.67065 | – |
| 2026 May 03 17:57 | 2026 Apr 30 08:38:49 | 74.0366 | 0.00803 | 14.0998 | 72.5261 | 314.2913 | 14.67065 | – |
| 2026 May 02 17:57 | 2026 Apr 30 08:38:49 | 74.0366 | 0.00803 | 14.0998 | 72.5261 | 314.2913 | 14.67065 | – |
| 2026 May 01 17:56 | 2026 Apr 30 08:38:49 | 74.0366 | 0.00803 | 14.0998 | 72.5261 | 314.2913 | 14.67065 | – |
| 2026 Apr 30 17:56 | 2026 Apr 30 08:38:49 | 74.0366 | 0.00803 | 14.0998 | 72.5261 | 314.2913 | 14.67065 | – |
| 2026 Apr 29 17:57 | 2026 Apr 24 08:32:39 | 74.0356 | 0.00805 | 14.8723 | 85.9475 | 314.2913 | 14.67065 | – |
| 2026 Apr 28 17:56 | 2026 Apr 24 08:32:39 | 74.0356 | 0.00805 | 14.8723 | 85.9475 | 314.2913 | 14.67065 | – |
| 2026 Apr 27 17:58 | 2026 Apr 24 08:32:39 | 74.0356 | 0.00805 | 14.8723 | 85.9475 | 314.2913 | 14.67065 | – |
| 2026 Apr 26 17:58 | 2026 Apr 24 08:32:39 | 74.0356 | 0.00805 | 14.8723 | 85.9475 | 314.2913 | 14.67065 | – |
| 2026 Apr 25 17:58 | 2026 Apr 24 08:32:39 | 74.0356 | 0.00805 | 14.8723 | 85.9475 | 314.2913 | 14.67065 | – |
| 2026 Apr 24 17:59 | 2026 Apr 24 08:32:39 | 74.0356 | 0.00805 | 14.8723 | 85.9475 | 314.2913 | 14.67065 | – |
| 2026 Apr 23 17:57 | 2026 Apr 19 07:17:25 | 74.0359 | 0.00808 | 15.5221 | 97.1715 | 314.2913 | 14.67065 | – |
| 2026 Apr 22 17:57 | 2026 Apr 19 07:17:25 | 74.0359 | 0.00808 | 15.5221 | 97.1715 | 314.2913 | 14.67065 | – |
| 2026 Apr 21 17:57 | 2026 Apr 19 07:17:25 | 74.0359 | 0.00808 | 15.5221 | 97.1715 | 314.2913 | 14.67065 | – |
| 2026 Apr 20 17:57 | 2026 Apr 19 07:17:25 | 74.0359 | 0.00808 | 15.5221 | 97.1715 | 314.2913 | 14.67065 | – |
| 2026 Apr 19 17:58 | 2026 Apr 19 07:17:25 | 74.0359 | 0.00808 | 15.5221 | 97.1715 | 314.2913 | 14.67065 | – |
| 2026 Apr 18 17:56 | 2026 Apr 12 20:23:38 | 74.0350 | 0.00811 | 16.3524 | 111.4749 | 314.2913 | 14.67065 | – |
| 2026 Apr 16 17:57 | 2026 Apr 12 20:23:38 | 74.0350 | 0.00811 | 16.3524 | 111.4749 | 314.2913 | 14.67065 | – |
| 2026 Apr 14 17:57 | 2026 Apr 12 20:23:38 | 74.0350 | 0.00811 | 16.3524 | 111.4749 | 314.2913 | 14.67065 | – |
| 2026 Apr 13 17:57 | 2026 Apr 12 20:23:38 | 74.0350 | 0.00811 | 16.3524 | 111.4749 | 314.2913 | 14.67065 | – |
| 2026 Apr 12 17:57 | 2026 Apr 08 11:13:07 | 74.0348 | 0.00814 | 16.9160 | 121.1474 | 314.2913 | 14.67065 | – |
| 2026 Apr 11 17:57 | 2026 Apr 08 11:13:07 | 74.0348 | 0.00814 | 16.9160 | 121.1474 | 314.2913 | 14.67065 | – |